sensor_id;sensor_type;location;lat;lon;timestamp;temperature;humidity
63435;DHT22;68814;50.872;5.306;2023-07-02T00:01:12;16.30;92.20
63435;DHT22;68814;50.872;5.306;2023-07-02T00:03:38;16.30;92.40
63435;DHT22;68814;50.872;5.306;2023-07-02T00:06:04;16.20;92.30
63435;DHT22;68814;50.872;5.306;2023-07-02T00:08:30;16.20;92.30
63435;DHT22;68814;50.872;5.306;2023-07-02T00:10:56;16.20;92.40
63435;DHT22;68814;50.872;5.306;2023-07-02T00:13:21;16.20;92.30
63435;DHT22;68814;50.872;5.306;2023-07-02T00:15:47;16.20;92.30
63435;DHT22;68814;50.872;5.306;2023-07-02T00:18:13;16.20;92.30
63435;DHT22;68814;50.872;5.306;2023-07-02T00:20:42;16.20;92.20
63435;DHT22;68814;50.872;5.306;2023-07-02T00:23:08;16.20;92.20
63435;DHT22;68814;50.872;5.306;2023-07-02T00:25:38;16.20;92.30
63435;DHT22;68814;50.872;5.306;2023-07-02T00:28:03;16.10;92.40
63435;DHT22;68814;50.872;5.306;2023-07-02T00:30:29;16.10;92.50
63435;DHT22;68814;50.872;5.306;2023-07-02T00:32:55;16.10;92.50
63435;DHT22;68814;50.872;5.306;2023-07-02T00:35:21;16.10;92.40
63435;DHT22;68814;50.872;5.306;2023-07-02T00:37:46;16.10;92.50
63435;DHT22;68814;50.872;5.306;2023-07-02T00:40:12;16.10;92.50
63435;DHT22;68814;50.872;5.306;2023-07-02T00:42:38;16.10;92.50
63435;DHT22;68814;50.872;5.306;2023-07-02T00:45:04;16.10;92.40
63435;DHT22;68814;50.872;5.306;2023-07-02T00:47:32;16.10;92.50
63435;DHT22;68814;50.872;5.306;2023-07-02T00:49:58;16.00;92.50
63435;DHT22;68814;50.872;5.306;2023-07-02T00:52:24;16.00;92.40
63435;DHT22;68814;50.872;5.306;2023-07-02T00:54:51;16.00;92.50
63435;DHT22;68814;50.872;5.306;2023-07-02T00:57:17;16.00;92.50
63435;DHT22;68814;50.872;5.306;2023-07-02T00:59:43;16.00;92.50
63435;DHT22;68814;50.872;5.306;2023-07-02T01:02:08;15.90;92.60
63435;DHT22;68814;50.872;5.306;2023-07-02T01:04:34;15.90;92.60
63435;DHT22;68814;50.872;5.306;2023-07-02T01:06:59;15.90;92.60
63435;DHT22;68814;50.872;5.306;2023-07-02T01:09:25;15.90;92.60
63435;DHT22;68814;50.872;5.306;2023-07-02T01:12:00;15.90;92.70
63435;DHT22;68814;50.872;5.306;2023-07-02T01:16:52;15.80;92.70
63435;DHT22;68814;50.872;5.306;2023-07-02T01:19:43;15.80;92.80
63435;DHT22;68814;50.872;5.306;2023-07-02T01:22:08;15.80;92.80
63435;DHT22;68814;50.872;5.306;2023-07-02T01:24:34;15.80;92.90
63435;DHT22;68814;50.872;5.306;2023-07-02T01:27:00;15.80;92.90
63435;DHT22;68814;50.872;5.306;2023-07-02T01:29:29;15.80;92.80
63435;DHT22;68814;50.872;5.306;2023-07-02T01:31:55;15.80;92.90
63435;DHT22;68814;50.872;5.306;2023-07-02T01:34:21;15.80;93.00
63435;DHT22;68814;50.872;5.306;2023-07-02T01:36:47;15.80;93.00
63435;DHT22;68814;50.872;5.306;2023-07-02T01:39:13;15.80;93.10
63435;DHT22;68814;50.872;5.306;2023-07-02T01:41:49;15.70;92.90
63435;DHT22;68814;50.872;5.306;2023-07-02T01:44:15;15.80;93.10
63435;DHT22;68814;50.872;5.306;2023-07-02T01:46:40;15.80;93.10
63435;DHT22;68814;50.872;5.306;2023-07-02T01:49:06;15.80;93.20
63435;DHT22;68814;50.872;5.306;2023-07-02T01:51:33;15.80;93.20
63435;DHT22;68814;50.872;5.306;2023-07-02T01:53:59;15.70;93.20
63435;DHT22;68814;50.872;5.306;2023-07-02T01:56:26;15.70;93.30
63435;DHT22;68814;50.872;5.306;2023-07-02T01:58:52;15.70;93.20
63435;DHT22;68814;50.872;5.306;2023-07-02T02:01:18;15.70;93.30
63435;DHT22;68814;50.872;5.306;2023-07-02T02:03:44;15.70;93.30
63435;DHT22;68814;50.872;5.306;2023-07-02T02:06:09;15.70;93.40
63435;DHT22;68814;50.872;5.306;2023-07-02T02:08:35;15.70;93.30
63435;DHT22;68814;50.872;5.306;2023-07-02T02:11:00;15.60;93.30
63435;DHT22;68814;50.872;5.306;2023-07-02T02:13:26;15.60;93.50
63435;DHT22;68814;50.872;5.306;2023-07-02T02:15:53;15.60;93.40
63435;DHT22;68814;50.872;5.306;2023-07-02T02:18:19;15.60;93.50
63435;DHT22;68814;50.872;5.306;2023-07-02T02:20:45;15.70;93.60
63435;DHT22;68814;50.872;5.306;2023-07-02T02:23:10;15.60;93.40
63435;DHT22;68814;50.872;5.306;2023-07-02T02:25:36;15.60;93.70
63435;DHT22;68814;50.872;5.306;2023-07-02T02:28:02;15.60;93.70
63435;DHT22;68814;50.872;5.306;2023-07-02T02:30:27;15.60;93.70
63435;DHT22;68814;50.872;5.306;2023-07-02T02:32:53;15.70;93.80
63435;DHT22;68814;50.872;5.306;2023-07-02T02:35:19;15.60;93.80
63435;DHT22;68814;50.872;5.306;2023-07-02T02:37:44;15.70;93.70
63435;DHT22;68814;50.872;5.306;2023-07-02T02:40:10;15.60;93.70
63435;DHT22;68814;50.872;5.306;2023-07-02T02:42:36;15.70;93.80
63435;DHT22;68814;50.872;5.306;2023-07-02T02:45:02;15.70;93.80
63435;DHT22;68814;50.872;5.306;2023-07-02T02:47:28;15.70;93.90
63435;DHT22;68814;50.872;5.306;2023-07-02T02:49:54;15.70;93.80
63435;DHT22;68814;50.872;5.306;2023-07-02T02:52:19;15.70;93.90
63435;DHT22;68814;50.872;5.306;2023-07-02T02:54:45;15.70;93.90
63435;DHT22;68814;50.872;5.306;2023-07-02T02:57:11;15.70;93.90
63435;DHT22;68814;50.872;5.306;2023-07-02T02:59:37;15.70;93.90
63435;DHT22;68814;50.872;5.306;2023-07-02T03:02:03;15.70;93.90
63435;DHT22;68814;50.872;5.306;2023-07-02T03:04:29;15.70;94.00
63435;DHT22;68814;50.872;5.306;2023-07-02T03:06:55;15.70;94.10
63435;DHT22;68814;50.872;5.306;2023-07-02T03:09:21;15.70;94.10
63435;DHT22;68814;50.872;5.306;2023-07-02T03:11:47;15.70;94.10
63435;DHT22;68814;50.872;5.306;2023-07-02T03:14:13;15.60;94.10
63435;DHT22;68814;50.872;5.306;2023-07-02T03:16:39;15.60;94.00
63435;DHT22;68814;50.872;5.306;2023-07-02T03:19:05;15.60;94.10
63435;DHT22;68814;50.872;5.306;2023-07-02T03:21:30;15.60;94.20
63435;DHT22;68814;50.872;5.306;2023-07-02T03:23:57;15.60;94.20
63435;DHT22;68814;50.872;5.306;2023-07-02T03:26:23;15.60;94.20
63435;DHT22;68814;50.872;5.306;2023-07-02T03:28:49;15.60;94.20
63435;DHT22;68814;50.872;5.306;2023-07-02T03:31:15;15.60;94.30
63435;DHT22;68814;50.872;5.306;2023-07-02T03:33:40;15.50;94.30
63435;DHT22;68814;50.872;5.306;2023-07-02T03:36:06;15.50;94.50
63435;DHT22;68814;50.872;5.306;2023-07-02T03:38:32;15.50;94.60
63435;DHT22;68814;50.872;5.306;2023-07-02T03:40:58;15.50;94.50
63435;DHT22;68814;50.872;5.306;2023-07-02T03:43:23;15.50;94.70
63435;DHT22;68814;50.872;5.306;2023-07-02T03:45:51;15.50;94.60
63435;DHT22;68814;50.872;5.306;2023-07-02T03:48:17;15.50;94.80
63435;DHT22;68814;50.872;5.306;2023-07-02T03:50:43;15.50;94.70
63435;DHT22;68814;50.872;5.306;2023-07-02T03:53:08;15.50;94.90
63435;DHT22;68814;50.872;5.306;2023-07-02T03:55:34;15.50;94.90
63435;DHT22;68814;50.872;5.306;2023-07-02T03:58:00;15.50;94.90
63435;DHT22;68814;50.872;5.306;2023-07-02T04:00:25;15.50;95.00
63435;DHT22;68814;50.872;5.306;2023-07-02T04:02:51;15.40;95.10
63435;DHT22;68814;50.872;5.306;2023-07-02T04:05:17;15.40;95.10
63435;DHT22;68814;50.872;5.306;2023-07-02T04:07:42;15.40;95.00
63435;DHT22;68814;50.872;5.306;2023-07-02T04:10:08;15.40;95.00
63435;DHT22;68814;50.872;5.306;2023-07-02T04:12:34;15.40;95.10
63435;DHT22;68814;50.872;5.306;2023-07-02T04:14:59;15.40;95.20
63435;DHT22;68814;50.872;5.306;2023-07-02T04:17:25;15.40;95.30
63435;DHT22;68814;50.872;5.306;2023-07-02T04:19:54;15.40;95.30
63435;DHT22;68814;50.872;5.306;2023-07-02T04:22:19;15.40;95.30
63435;DHT22;68814;50.872;5.306;2023-07-02T04:24:46;15.40;95.30
63435;DHT22;68814;50.872;5.306;2023-07-02T04:27:14;15.40;95.40
63435;DHT22;68814;50.872;5.306;2023-07-02T04:29:45;15.40;95.40
63435;DHT22;68814;50.872;5.306;2023-07-02T04:32:11;15.40;95.40
63435;DHT22;68814;50.872;5.306;2023-07-02T04:34:36;15.40;95.50
63435;DHT22;68814;50.872;5.306;2023-07-02T04:37:03;15.40;95.50
63435;DHT22;68814;50.872;5.306;2023-07-02T04:39:29;15.40;95.60
63435;DHT22;68814;50.872;5.306;2023-07-02T04:41:55;15.40;95.60
63435;DHT22;68814;50.872;5.306;2023-07-02T04:44:20;15.40;95.60
63435;DHT22;68814;50.872;5.306;2023-07-02T04:46:48;15.40;95.70
63435;DHT22;68814;50.872;5.306;2023-07-02T04:49:14;15.40;95.70
63435;DHT22;68814;50.872;5.306;2023-07-02T04:51:40;15.40;95.70
63435;DHT22;68814;50.872;5.306;2023-07-02T04:54:05;15.40;95.70
63435;DHT22;68814;50.872;5.306;2023-07-02T04:56:31;15.40;95.70
63435;DHT22;68814;50.872;5.306;2023-07-02T04:58:56;15.50;95.80
63435;DHT22;68814;50.872;5.306;2023-07-02T05:01:22;15.50;95.90
63435;DHT22;68814;50.872;5.306;2023-07-02T05:03:47;15.50;95.90
63435;DHT22;68814;50.872;5.306;2023-07-02T05:06:14;15.60;95.80
63435;DHT22;68814;50.872;5.306;2023-07-02T05:08:39;15.60;95.70
63435;DHT22;68814;50.872;5.306;2023-07-02T05:11:05;15.60;95.80
63435;DHT22;68814;50.872;5.306;2023-07-02T05:13:30;15.70;95.80
63435;DHT22;68814;50.872;5.306;2023-07-02T05:15:56;15.70;95.80
63435;DHT22;68814;50.872;5.306;2023-07-02T05:18:21;15.70;95.60
63435;DHT22;68814;50.872;5.306;2023-07-02T05:20:47;15.70;95.80
63435;DHT22;68814;50.872;5.306;2023-07-02T05:23:13;15.80;95.80
63435;DHT22;68814;50.872;5.306;2023-07-02T05:25:38;15.80;95.80
63435;DHT22;68814;50.872;5.306;2023-07-02T05:28:04;15.80;95.80
63435;DHT22;68814;50.872;5.306;2023-07-02T05:30:30;15.80;95.80
63435;DHT22;68814;50.872;5.306;2023-07-02T05:32:55;15.90;95.70
63435;DHT22;68814;50.872;5.306;2023-07-02T05:35:21;15.90;95.60
63435;DHT22;68814;50.872;5.306;2023-07-02T05:37:46;16.00;95.60
63435;DHT22;68814;50.872;5.306;2023-07-02T05:40:12;16.00;95.30
63435;DHT22;68814;50.872;5.306;2023-07-02T05:42:37;16.10;95.40
63435;DHT22;68814;50.872;5.306;2023-07-02T05:45:03;16.10;95.20
63435;DHT22;68814;50.872;5.306;2023-07-02T05:47:29;16.10;95.20
63435;DHT22;68814;50.872;5.306;2023-07-02T05:49:55;16.10;95.20
63435;DHT22;68814;50.872;5.306;2023-07-02T05:52:20;16.20;95.20
63435;DHT22;68814;50.872;5.306;2023-07-02T05:54:48;16.20;95.20
63435;DHT22;68814;50.872;5.306;2023-07-02T05:57:13;16.30;95.10
63435;DHT22;68814;50.872;5.306;2023-07-02T05:59:39;16.40;94.90
63435;DHT22;68814;50.872;5.306;2023-07-02T06:02:04;16.40;94.70
63435;DHT22;68814;50.872;5.306;2023-07-02T06:04:30;16.40;94.70
63435;DHT22;68814;50.872;5.306;2023-07-02T06:06:56;16.50;94.60
63435;DHT22;68814;50.872;5.306;2023-07-02T06:09:22;16.50;94.30
63435;DHT22;68814;50.872;5.306;2023-07-02T06:11:48;16.50;94.40
63435;DHT22;68814;50.872;5.306;2023-07-02T06:14:14;16.60;94.60
63435;DHT22;68814;50.872;5.306;2023-07-02T06:16:39;16.70;94.20
63435;DHT22;68814;50.872;5.306;2023-07-02T06:19:05;16.70;93.80
63435;DHT22;68814;50.872;5.306;2023-07-02T06:21:31;16.70;93.90
63435;DHT22;68814;50.872;5.306;2023-07-02T06:23:57;16.70;94.10
63435;DHT22;68814;50.872;5.306;2023-07-02T06:26:25;16.70;93.80
63435;DHT22;68814;50.872;5.306;2023-07-02T06:28:50;16.70;93.70
63435;DHT22;68814;50.872;5.306;2023-07-02T06:31:16;16.80;93.80
63435;DHT22;68814;50.872;5.306;2023-07-02T06:33:41;16.80;93.90
63435;DHT22;68814;50.872;5.306;2023-07-02T06:36:08;16.90;93.70
63435;DHT22;68814;50.872;5.306;2023-07-02T06:38:33;16.90;93.60
63435;DHT22;68814;50.872;5.306;2023-07-02T06:40:59;17.00;93.50
63435;DHT22;68814;50.872;5.306;2023-07-02T06:43:24;17.10;93.50
63435;DHT22;68814;50.872;5.306;2023-07-02T06:45:50;17.10;93.20
63435;DHT22;68814;50.872;5.306;2023-07-02T06:48:16;17.20;93.10
63435;DHT22;68814;50.872;5.306;2023-07-02T06:50:44;17.30;93.20
63435;DHT22;68814;50.872;5.306;2023-07-02T06:53:10;17.30;93.00
63435;DHT22;68814;50.872;5.306;2023-07-02T06:55:36;17.40;93.00
63435;DHT22;68814;50.872;5.306;2023-07-02T06:58:01;17.40;92.80
63435;DHT22;68814;50.872;5.306;2023-07-02T07:00:27;17.50;92.90
63435;DHT22;68814;50.872;5.306;2023-07-02T07:02:53;17.60;92.40
63435;DHT22;68814;50.872;5.306;2023-07-02T07:05:18;17.60;92.30
63435;DHT22;68814;50.872;5.306;2023-07-02T07:07:44;17.70;91.90
63435;DHT22;68814;50.872;5.306;2023-07-02T07:10:09;17.70;91.60
63435;DHT22;68814;50.872;5.306;2023-07-02T07:12:35;17.80;91.60
63435;DHT22;68814;50.872;5.306;2023-07-02T07:15:01;17.80;91.40
63435;DHT22;68814;50.872;5.306;2023-07-02T07:17:27;17.70;91.10
63435;DHT22;68814;50.872;5.306;2023-07-02T07:19:53;17.80;91.40
63435;DHT22;68814;50.872;5.306;2023-07-02T07:22:19;17.80;91.10
63435;DHT22;68814;50.872;5.306;2023-07-02T07:24:44;17.90;91.20
63435;DHT22;68814;50.872;5.306;2023-07-02T07:27:10;18.00;91.60
63435;DHT22;68814;50.872;5.306;2023-07-02T07:29:35;18.00;91.10
63435;DHT22;68814;50.872;5.306;2023-07-02T07:32:02;18.10;91.20
63435;DHT22;68814;50.872;5.306;2023-07-02T07:34:28;18.20;90.50
63435;DHT22;68814;50.872;5.306;2023-07-02T07:36:53;18.20;90.90
63435;DHT22;68814;50.872;5.306;2023-07-02T07:39:19;18.30;90.70
63435;DHT22;68814;50.872;5.306;2023-07-02T07:41:47;18.30;90.60
63435;DHT22;68814;50.872;5.306;2023-07-02T07:44:16;18.40;90.30
63435;DHT22;68814;50.872;5.306;2023-07-02T07:46:41;18.40;90.30
63435;DHT22;68814;50.872;5.306;2023-07-02T07:49:07;18.50;90.10
63435;DHT22;68814;50.872;5.306;2023-07-02T07:51:32;18.60;89.90
63435;DHT22;68814;50.872;5.306;2023-07-02T07:54:01;18.70;89.40
63435;DHT22;68814;50.872;5.306;2023-07-02T07:56:27;18.70;89.50
63435;DHT22;68814;50.872;5.306;2023-07-02T07:58:52;18.80;89.50
63435;DHT22;68814;50.872;5.306;2023-07-02T08:01:18;18.80;88.30
63435;DHT22;68814;50.872;5.306;2023-07-02T08:03:43;18.90;89.50
63435;DHT22;68814;50.872;5.306;2023-07-02T08:06:09;19.00;87.80
63435;DHT22;68814;50.872;5.306;2023-07-02T08:08:34;19.10;87.50
63435;DHT22;68814;50.872;5.306;2023-07-02T08:11:00;19.20;87.50
63435;DHT22;68814;50.872;5.306;2023-07-02T08:13:26;19.20;87.10
63435;DHT22;68814;50.872;5.306;2023-07-02T08:15:51;19.40;88.60
63435;DHT22;68814;50.872;5.306;2023-07-02T08:18:17;19.40;87.00
63435;DHT22;68814;50.872;5.306;2023-07-02T08:20:42;19.60;86.10
63435;DHT22;68814;50.872;5.306;2023-07-02T08:23:08;19.60;81.80
63435;DHT22;68814;50.872;5.306;2023-07-02T08:25:33;19.70;81.20
63435;DHT22;68814;50.872;5.306;2023-07-02T08:27:59;19.70;80.30
63435;DHT22;68814;50.872;5.306;2023-07-02T08:30:24;19.80;81.30
63435;DHT22;68814;50.872;5.306;2023-07-02T08:32:50;19.90;80.10
63435;DHT22;68814;50.872;5.306;2023-07-02T08:35:16;20.00;80.90
63435;DHT22;68814;50.872;5.306;2023-07-02T08:37:41;20.10;79.10
63435;DHT22;68814;50.872;5.306;2023-07-02T08:40:18;20.10;77.40
63435;DHT22;68814;50.872;5.306;2023-07-02T08:42:47;20.00;79.30
63435;DHT22;68814;50.872;5.306;2023-07-02T08:45:14;20.10;80.00
63435;DHT22;68814;50.872;5.306;2023-07-02T08:47:41;20.10;79.20
63435;DHT22;68814;50.872;5.306;2023-07-02T08:50:07;20.20;77.20
63435;DHT22;68814;50.872;5.306;2023-07-02T08:52:33;20.20;75.50
63435;DHT22;68814;50.872;5.306;2023-07-02T08:54:58;20.20;76.00
63435;DHT22;68814;50.872;5.306;2023-07-02T08:57:24;20.10;76.50
63435;DHT22;68814;50.872;5.306;2023-07-02T08:59:50;20.20;75.80
63435;DHT22;68814;50.872;5.306;2023-07-02T09:02:18;20.30;75.50
63435;DHT22;68814;50.872;5.306;2023-07-02T09:04:43;20.30;73.70
63435;DHT22;68814;50.872;5.306;2023-07-02T09:07:10;20.20;71.10
63435;DHT22;68814;50.872;5.306;2023-07-02T09:09:50;20.20;73.00
63435;DHT22;68814;50.872;5.306;2023-07-02T09:12:29;20.30;72.30
63435;DHT22;68814;50.872;5.306;2023-07-02T09:15:02;20.30;72.80
63435;DHT22;68814;50.872;5.306;2023-07-02T09:17:33;20.40;72.00
63435;DHT22;68814;50.872;5.306;2023-07-02T09:20:00;20.40;69.20
63435;DHT22;68814;50.872;5.306;2023-07-02T09:22:26;20.40;68.20
63435;DHT22;68814;50.872;5.306;2023-07-02T09:24:53;20.40;69.80
63435;DHT22;68814;50.872;5.306;2023-07-02T09:27:20;20.70;70.90
63435;DHT22;68814;50.872;5.306;2023-07-02T09:29:50;20.90;69.00
63435;DHT22;68814;50.872;5.306;2023-07-02T09:32:26;21.10;62.90
63435;DHT22;68814;50.872;5.306;2023-07-02T09:34:55;21.30;60.40
63435;DHT22;68814;50.872;5.306;2023-07-02T09:37:23;21.40;60.90
63435;DHT22;68814;50.872;5.306;2023-07-02T09:39:50;21.50;61.60
63435;DHT22;68814;50.872;5.306;2023-07-02T09:42:17;21.40;60.00
63435;DHT22;68814;50.872;5.306;2023-07-02T09:44:45;21.40;60.70
63435;DHT22;68814;50.872;5.306;2023-07-02T09:47:12;21.40;59.60
63435;DHT22;68814;50.872;5.306;2023-07-02T09:49:51;21.30;61.00
63435;DHT22;68814;50.872;5.306;2023-07-02T09:52:18;21.50;59.20
63435;DHT22;68814;50.872;5.306;2023-07-02T09:54:44;21.60;57.90
63435;DHT22;68814;50.872;5.306;2023-07-02T09:57:10;21.70;56.50
63435;DHT22;68814;50.872;5.306;2023-07-02T09:59:37;21.70;58.80
63435;DHT22;68814;50.872;5.306;2023-07-02T10:02:03;21.70;57.20
63435;DHT22;68814;50.872;5.306;2023-07-02T10:04:48;21.60;56.40
63435;DHT22;68814;50.872;5.306;2023-07-02T10:07:28;21.50;56.20
63435;DHT22;68814;50.872;5.306;2023-07-02T10:09:53;21.30;56.10
63435;DHT22;68814;50.872;5.306;2023-07-02T10:12:21;21.20;56.20
63435;DHT22;68814;50.872;5.306;2023-07-02T10:14:49;21.10;57.70
63435;DHT22;68814;50.872;5.306;2023-07-02T10:17:31;21.00;58.70
63435;DHT22;68814;50.872;5.306;2023-07-02T10:20:06;21.10;59.20
63435;DHT22;68814;50.872;5.306;2023-07-02T10:22:47;21.10;59.10
63435;DHT22;68814;50.872;5.306;2023-07-02T10:25:29;21.10;59.70
63435;DHT22;68814;50.872;5.306;2023-07-02T10:27:55;21.10;60.20
63435;DHT22;68814;50.872;5.306;2023-07-02T10:30:35;21.10;61.70
63435;DHT22;68814;50.872;5.306;2023-07-02T10:33:17;21.10;62.20
63435;DHT22;68814;50.872;5.306;2023-07-02T10:35:44;21.20;61.80
63435;DHT22;68814;50.872;5.306;2023-07-02T10:38:22;21.20;61.60
63435;DHT22;68814;50.872;5.306;2023-07-02T10:40:54;21.30;63.00
63435;DHT22;68814;50.872;5.306;2023-07-02T10:43:30;21.50;60.90
63435;DHT22;68814;50.872;5.306;2023-07-02T10:45:57;21.60;61.60
63435;DHT22;68814;50.872;5.306;2023-07-02T10:48:25;21.70;59.50
63435;DHT22;68814;50.872;5.306;2023-07-02T10:50:50;21.70;58.70
63435;DHT22;68814;50.872;5.306;2023-07-02T10:53:17;21.70;59.30
63435;DHT22;68814;50.872;5.306;2023-07-02T10:55:44;21.70;60.00
63435;DHT22;68814;50.872;5.306;2023-07-02T10:58:10;21.80;58.50
63435;DHT22;68814;50.872;5.306;2023-07-02T11:00:50;21.80;58.80
63435;DHT22;68814;50.872;5.306;2023-07-02T11:03:23;21.70;59.60
63435;DHT22;68814;50.872;5.306;2023-07-02T11:05:50;21.60;59.30
63435;DHT22;68814;50.872;5.306;2023-07-02T11:08:16;21.50;59.20
63435;DHT22;68814;50.872;5.306;2023-07-02T11:10:41;21.50;60.00
63435;DHT22;68814;50.872;5.306;2023-07-02T11:13:17;21.50;62.10
63435;DHT22;68814;50.872;5.306;2023-07-02T11:15:44;21.60;61.10
63435;DHT22;68814;50.872;5.306;2023-07-02T11:18:17;21.70;60.20
63435;DHT22;68814;50.872;5.306;2023-07-02T11:20:45;21.90;61.30
63435;DHT22;68814;50.872;5.306;2023-07-02T11:23:21;22.10;61.10
63435;DHT22;68814;50.872;5.306;2023-07-02T11:25:59;22.30;59.20
63435;DHT22;68814;50.872;5.306;2023-07-02T11:28:26;22.40;59.60
63435;DHT22;68814;50.872;5.306;2023-07-02T11:30:52;22.50;59.00
63435;DHT22;68814;50.872;5.306;2023-07-02T11:33:17;22.50;58.30
63435;DHT22;68814;50.872;5.306;2023-07-02T11:35:43;22.40;58.50
63435;DHT22;68814;50.872;5.306;2023-07-02T11:38:09;22.30;57.30
63435;DHT22;68814;50.872;5.306;2023-07-02T11:40:40;22.10;57.60
63435;DHT22;68814;50.872;5.306;2023-07-02T11:43:06;22.00;57.70
63435;DHT22;68814;50.872;5.306;2023-07-02T11:45:32;22.00;57.40
63435;DHT22;68814;50.872;5.306;2023-07-02T11:47:57;22.00;59.10
63435;DHT22;68814;50.872;5.306;2023-07-02T11:50:23;22.00;58.90
63435;DHT22;68814;50.872;5.306;2023-07-02T11:52:48;22.00;59.10
63435;DHT22;68814;50.872;5.306;2023-07-02T11:55:14;21.90;59.80
63435;DHT22;68814;50.872;5.306;2023-07-02T11:57:40;22.10;59.10
63435;DHT22;68814;50.872;5.306;2023-07-02T12:00:06;22.20;59.40
63435;DHT22;68814;50.872;5.306;2023-07-02T12:02:32;22.40;61.10
63435;DHT22;68814;50.872;5.306;2023-07-02T12:04:57;22.60;59.00
63435;DHT22;68814;50.872;5.306;2023-07-02T12:07:23;22.80;56.90
63435;DHT22;68814;50.872;5.306;2023-07-02T12:09:50;22.90;56.10
63435;DHT22;68814;50.872;5.306;2023-07-02T12:12:16;22.90;55.80
63435;DHT22;68814;50.872;5.306;2023-07-02T12:14:41;22.80;55.40
63435;DHT22;68814;50.872;5.306;2023-07-02T12:17:09;22.90;54.90
63435;DHT22;68814;50.872;5.306;2023-07-02T12:19:40;23.00;54.70
63435;DHT22;68814;50.872;5.306;2023-07-02T12:22:06;22.90;56.30
63435;DHT22;68814;50.872;5.306;2023-07-02T12:24:32;22.90;55.20
63435;DHT22;68814;50.872;5.306;2023-07-02T12:26:58;22.90;55.20
63435;DHT22;68814;50.872;5.306;2023-07-02T12:29:23;22.90;56.30
63435;DHT22;68814;50.872;5.306;2023-07-02T12:31:49;22.90;54.70
63435;DHT22;68814;50.872;5.306;2023-07-02T12:34:15;22.70;55.40
63435;DHT22;68814;50.872;5.306;2023-07-02T12:36:41;22.70;57.10
63435;DHT22;68814;50.872;5.306;2023-07-02T12:39:06;22.70;56.20
63435;DHT22;68814;50.872;5.306;2023-07-02T12:41:33;22.80;54.40
63435;DHT22;68814;50.872;5.306;2023-07-02T12:43:59;22.90;55.00
63435;DHT22;68814;50.872;5.306;2023-07-02T12:46:25;23.10;54.80
63435;DHT22;68814;50.872;5.306;2023-07-02T12:48:50;23.30;54.20
63435;DHT22;68814;50.872;5.306;2023-07-02T12:51:16;23.40;54.40
63435;DHT22;68814;50.872;5.306;2023-07-02T12:53:42;23.40;51.80
63435;DHT22;68814;50.872;5.306;2023-07-02T12:56:07;23.20;52.40
63435;DHT22;68814;50.872;5.306;2023-07-02T12:58:33;23.00;53.80
63435;DHT22;68814;50.872;5.306;2023-07-02T13:00:58;23.00;54.00
63435;DHT22;68814;50.872;5.306;2023-07-02T13:03:24;23.00;53.80
63435;DHT22;68814;50.872;5.306;2023-07-02T13:05:50;22.90;54.80
63435;DHT22;68814;50.872;5.306;2023-07-02T13:08:16;23.00;54.50
63435;DHT22;68814;50.872;5.306;2023-07-02T13:10:42;23.10;54.40
63435;DHT22;68814;50.872;5.306;2023-07-02T13:13:08;23.20;56.00
63435;DHT22;68814;50.872;5.306;2023-07-02T13:15:33;23.20;53.50
63435;DHT22;68814;50.872;5.306;2023-07-02T13:18:00;23.30;54.40
63435;DHT22;68814;50.872;5.306;2023-07-02T13:20:26;23.40;54.50
63435;DHT22;68814;50.872;5.306;2023-07-02T13:22:52;23.70;53.30
63435;DHT22;68814;50.872;5.306;2023-07-02T13:25:17;24.00;52.90
63435;DHT22;68814;50.872;5.306;2023-07-02T13:27:43;24.20;53.20
63435;DHT22;68814;50.872;5.306;2023-07-02T13:30:09;24.40;51.40
63435;DHT22;68814;50.872;5.306;2023-07-02T13:32:34;24.50;49.10
63435;DHT22;68814;50.872;5.306;2023-07-02T13:35:00;24.50;51.20
63435;DHT22;68814;50.872;5.306;2023-07-02T13:37:26;24.60;50.50
63435;DHT22;68814;50.872;5.306;2023-07-02T13:39:51;24.70;49.90
63435;DHT22;68814;50.872;5.306;2023-07-02T13:42:17;24.90;52.00
63435;DHT22;68814;50.872;5.306;2023-07-02T13:44:43;25.10;49.70
63435;DHT22;68814;50.872;5.306;2023-07-02T13:47:09;25.20;49.20
63435;DHT22;68814;50.872;5.306;2023-07-02T13:49:35;25.20;48.30
63435;DHT22;68814;50.872;5.306;2023-07-02T13:52:00;25.20;50.10
63435;DHT22;68814;50.872;5.306;2023-07-02T13:54:26;25.10;48.70
63435;DHT22;68814;50.872;5.306;2023-07-02T13:56:52;25.00;48.60
63435;DHT22;68814;50.872;5.306;2023-07-02T13:59:19;25.10;52.10
63435;DHT22;68814;50.872;5.306;2023-07-02T14:01:46;25.40;51.80
63435;DHT22;68814;50.872;5.306;2023-07-02T14:04:13;25.60;49.50
63435;DHT22;68814;50.872;5.306;2023-07-02T14:06:39;25.70;48.70
63435;DHT22;68814;50.872;5.306;2023-07-02T14:09:05;25.60;47.70
63435;DHT22;68814;50.872;5.306;2023-07-02T14:11:31;25.60;47.90
63435;DHT22;68814;50.872;5.306;2023-07-02T14:13:57;25.40;48.10
63435;DHT22;68814;50.872;5.306;2023-07-02T14:16:23;25.30;47.20
63435;DHT22;68814;50.872;5.306;2023-07-02T14:18:49;25.20;47.20
63435;DHT22;68814;50.872;5.306;2023-07-02T14:21:15;25.10;48.80
63435;DHT22;68814;50.872;5.306;2023-07-02T14:23:41;25.20;49.20
63435;DHT22;68814;50.872;5.306;2023-07-02T14:26:06;25.40;48.40
63435;DHT22;68814;50.872;5.306;2023-07-02T14:28:33;25.60;50.00
63435;DHT22;68814;50.872;5.306;2023-07-02T14:31:03;25.90;50.20
63435;DHT22;68814;50.872;5.306;2023-07-02T14:33:30;26.10;48.60
63435;DHT22;68814;50.872;5.306;2023-07-02T14:35:57;26.30;46.40
63435;DHT22;68814;50.872;5.306;2023-07-02T14:38:23;26.50;47.30
63435;DHT22;68814;50.872;5.306;2023-07-02T14:40:49;26.80;45.50
63435;DHT22;68814;50.872;5.306;2023-07-02T14:43:16;26.80;45.60
63435;DHT22;68814;50.872;5.306;2023-07-02T14:45:50;26.70;46.00
63435;DHT22;68814;50.872;5.306;2023-07-02T14:48:16;26.50;46.50
63435;DHT22;68814;50.872;5.306;2023-07-02T14:50:44;26.40;47.00
63435;DHT22;68814;50.872;5.306;2023-07-02T14:53:10;26.50;46.80
63435;DHT22;68814;50.872;5.306;2023-07-02T14:55:35;26.50;45.70
63435;DHT22;68814;50.872;5.306;2023-07-02T14:58:01;26.70;47.10
63435;DHT22;68814;50.872;5.306;2023-07-02T15:00:27;26.80;46.60
63435;DHT22;68814;50.872;5.306;2023-07-02T15:02:52;26.70;46.60
63435;DHT22;68814;50.872;5.306;2023-07-02T15:05:18;26.80;46.40
63435;DHT22;68814;50.872;5.306;2023-07-02T15:07:43;26.70;45.60
63435;DHT22;68814;50.872;5.306;2023-07-02T15:10:09;26.60;45.60
63435;DHT22;68814;50.872;5.306;2023-07-02T15:12:34;26.60;46.50
63435;DHT22;68814;50.872;5.306;2023-07-02T15:15:00;26.70;46.00
63435;DHT22;68814;50.872;5.306;2023-07-02T15:17:26;26.90;44.70
63435;DHT22;68814;50.872;5.306;2023-07-02T15:19:51;27.10;45.30
63435;DHT22;68814;50.872;5.306;2023-07-02T15:22:17;26.90;45.40
63435;DHT22;68814;50.872;5.306;2023-07-02T15:24:42;26.90;45.10
63435;DHT22;68814;50.872;5.306;2023-07-02T15:27:08;27.00;46.70
63435;DHT22;68814;50.872;5.306;2023-07-02T15:29:33;27.00;45.30